createdAt,value
2023-05-12T00:01:59.160Z,14.75
2023-05-12T00:04:26.011Z,14.40
2023-05-12T00:06:52.848Z,14.55
2023-05-12T00:09:19.505Z,14.81
2023-05-12T00:11:48.359Z,15.75
2023-05-12T00:14:15.076Z,14.79
2023-05-12T00:16:41.764Z,14.31
2023-05-12T00:19:08.806Z,14.30
2023-05-12T00:21:36.092Z,15.02
2023-05-12T00:24:02.724Z,14.95
2023-05-12T00:26:29.568Z,14.72
2023-05-12T00:28:56.092Z,14.61
2023-05-12T00:31:22.651Z,14.75
2023-05-12T00:33:49.339Z,15.01
2023-05-12T00:36:15.974Z,14.38
2023-05-12T00:38:42.639Z,14.31
2023-05-12T00:41:09.169Z,14.68
2023-05-12T00:43:35.859Z,14.24
2023-05-12T00:46:05.403Z,14.79
2023-05-12T00:48:32.835Z,14.82
2023-05-12T00:51:01.182Z,14.40
2023-05-12T00:53:34.948Z,14.79
2023-05-12T00:56:08.842Z,14.88
2023-05-12T00:58:35.744Z,14.53
2023-05-12T01:01:02.631Z,14.59
2023-05-12T01:03:30.823Z,14.77
2023-05-12T01:06:12.447Z,14.80
2023-05-12T01:08:39.275Z,14.67
2023-05-12T01:11:06.380Z,14.16
2023-05-12T01:13:33.524Z,14.13
2023-05-12T01:16:02.946Z,14.36
2023-05-12T01:18:33.554Z,14.24
2023-05-12T01:21:01.456Z,14.67
2023-05-12T01:23:35.363Z,14.45
2023-05-12T01:26:11.701Z,14.19
2023-05-12T01:28:41.614Z,13.58
2023-05-12T01:31:09.200Z,14.32
2023-05-12T01:33:36.818Z,14.36
2023-05-12T01:36:03.598Z,14.24
2023-05-12T01:38:30.475Z,14.04
2023-05-12T01:40:57.218Z,13.84
2023-05-12T01:43:23.831Z,14.24
2023-05-12T01:45:50.343Z,14.34
2023-05-12T01:48:17.073Z,14.06
2023-05-12T01:50:43.652Z,14.06
2023-05-12T01:53:10.655Z,14.23
2023-05-12T01:55:37.377Z,14.30
2023-05-12T01:58:04.313Z,14.25
2023-05-12T02:00:30.870Z,14.19
2023-05-12T02:02:57.545Z,14.11
2023-05-12T02:05:24.244Z,14.06
2023-05-12T02:07:51.107Z,14.41
2023-05-12T02:10:18.549Z,14.30
2023-05-12T02:12:46.685Z,14.27
2023-05-12T02:15:13.354Z,13.98
2023-05-12T02:17:39.967Z,14.70
2023-05-12T02:20:07.336Z,14.33
2023-05-12T02:22:34.290Z,13.96
2023-05-12T02:25:01.113Z,14.22
2023-05-12T02:27:27.674Z,13.89
2023-05-12T02:29:54.235Z,13.98
2023-05-12T02:32:21.632Z,14.18
2023-05-12T02:34:48.389Z,14.05
2023-05-12T02:37:15.138Z,13.99
2023-05-12T02:39:41.675Z,14.11
2023-05-12T02:42:08.211Z,14.36
2023-05-12T02:44:34.696Z,14.39
2023-05-12T02:47:01.562Z,15.09
2023-05-12T02:49:28.157Z,15.22
2023-05-12T02:51:55.554Z,15.64
2023-05-12T02:54:22.160Z,14.71
2023-05-12T02:56:48.799Z,14.70
2023-05-12T02:59:15.318Z,14.73
2023-05-12T03:01:42.036Z,14.93
2023-05-12T03:04:08.835Z,14.84
2023-05-12T03:06:35.425Z,14.94
2023-05-12T03:09:02.397Z,14.97
2023-05-12T03:11:29.019Z,14.81
2023-05-12T03:13:55.556Z,14.81
2023-05-12T03:16:22.248Z,14.72
2023-05-12T03:18:49.383Z,14.92
2023-05-12T03:21:15.990Z,14.95
2023-05-12T03:23:42.502Z,14.69
2023-05-12T03:26:09.185Z,14.97
2023-05-12T03:28:35.869Z,14.86
2023-05-12T03:31:02.553Z,14.81
2023-05-12T03:33:30.129Z,14.65
2023-05-12T03:35:56.785Z,14.71
2023-05-12T03:38:23.464Z,14.87
2023-05-12T03:40:52.862Z,15.04
2023-05-12T03:43:19.659Z,14.90
2023-05-12T03:45:46.214Z,14.95
2023-05-12T03:48:12.911Z,14.96
2023-05-12T03:50:39.412Z,15.01
2023-05-12T03:53:06.056Z,14.89
2023-05-12T03:55:32.772Z,14.66
2023-05-12T03:57:59.475Z,14.72
2023-05-12T04:00:26.098Z,14.84
2023-05-12T04:02:52.833Z,15.08
2023-05-12T04:05:19.590Z,15.02
2023-05-12T04:07:46.128Z,14.92
2023-05-12T04:10:12.660Z,15.08
2023-05-12T04:12:39.379Z,14.99
2023-05-12T04:15:06.822Z,14.70
2023-05-12T04:17:33.924Z,15.00
2023-05-12T04:20:00.617Z,14.93
2023-05-12T04:22:27.120Z,14.71
2023-05-12T04:24:53.708Z,14.82
2023-05-12T04:27:20.451Z,15.11
2023-05-12T04:29:47.059Z,15.01
2023-05-12T04:32:13.765Z,15.16
2023-05-12T04:34:40.445Z,14.97
2023-05-12T04:37:07.048Z,14.72
2023-05-12T04:39:33.707Z,14.86
2023-05-12T04:42:01.958Z,15.13
2023-05-12T04:44:28.540Z,15.32
2023-05-12T04:46:56.494Z,15.40
2023-05-12T04:49:23.211Z,14.71
2023-05-12T04:51:49.817Z,15.21
2023-05-12T04:54:16.419Z,15.19
2023-05-12T04:56:43.246Z,15.38
2023-05-12T04:59:09.834Z,15.12
2023-05-12T05:01:36.415Z,14.75
2023-05-12T05:04:03.467Z,15.26
2023-05-12T05:06:30.851Z,15.09
2023-05-12T05:08:57.494Z,14.89
2023-05-12T05:11:25.022Z,14.86
2023-05-12T05:13:51.690Z,14.83
2023-05-12T05:16:18.306Z,14.37
2023-05-12T05:18:47.757Z,14.63
2023-05-12T05:21:15.789Z,14.81
2023-05-12T05:23:42.596Z,14.62
2023-05-12T05:26:10.096Z,14.99
2023-05-12T05:28:37.534Z,14.81
2023-05-12T05:31:04.377Z,14.94
2023-05-12T05:33:31.378Z,14.54
2023-05-12T05:35:58.088Z,14.58
2023-05-12T05:38:24.673Z,14.80
2023-05-12T05:40:54.131Z,14.83
2023-05-12T05:43:21.587Z,15.10
2023-05-12T05:45:50.155Z,15.37
2023-05-12T05:48:17.349Z,15.24
2023-05-12T05:50:44.239Z,15.25
2023-05-12T05:53:10.954Z,15.19
2023-05-12T05:55:38.682Z,15.74
2023-05-12T05:58:06.085Z,15.96
2023-05-12T06:00:32.736Z,15.87
2023-05-12T06:02:59.466Z,15.98
2023-05-12T06:05:26.213Z,15.76
2023-05-12T06:07:52.865Z,15.72
2023-05-12T06:10:19.909Z,15.43
2023-05-12T06:12:46.701Z,15.54
2023-05-12T06:15:13.720Z,15.59
2023-05-12T06:17:40.515Z,15.94
2023-05-12T06:20:07.926Z,16.11
2023-05-12T06:22:37.643Z,16.12
2023-05-12T06:25:04.449Z,15.64
2023-05-12T06:27:31.249Z,16.05
2023-05-12T06:29:57.860Z,15.92
2023-05-12T06:32:24.564Z,15.85
2023-05-12T06:34:51.678Z,16.04
2023-05-12T06:37:19.461Z,16.05
2023-05-12T06:39:47.195Z,15.87
2023-05-12T06:42:14.262Z,16.24
2023-05-12T06:44:42.535Z,16.21
2023-05-12T06:47:11.019Z,16.11
2023-05-12T06:49:38.672Z,16.40
2023-05-12T06:52:06.770Z,16.46
2023-05-12T06:54:33.661Z,16.26
2023-05-12T06:57:00.409Z,16.46
2023-05-12T06:59:27.015Z,16.23
2023-05-12T07:01:53.653Z,16.45
2023-05-12T07:04:21.746Z,16.09
2023-05-12T07:06:48.389Z,16.68
2023-05-12T07:09:15.049Z,16.07
2023-05-12T07:11:41.944Z,16.09
2023-05-12T07:14:08.529Z,16.23
2023-05-12T07:16:36.066Z,16.02
2023-05-12T07:19:02.870Z,16.13
2023-05-12T07:21:29.898Z,16.12
2023-05-12T07:23:57.007Z,16.62
2023-05-12T07:26:24.352Z,16.62
2023-05-12T07:28:50.909Z,16.33
2023-05-12T07:31:17.503Z,16.52
2023-05-12T07:33:44.846Z,16.96
2023-05-12T07:36:12.844Z,16.34
2023-05-12T07:38:40.851Z,16.73
2023-05-12T07:41:07.855Z,16.18
2023-05-12T07:43:34.531Z,16.09
2023-05-12T07:46:03.421Z,16.92
2023-05-12T07:48:31.310Z,16.81
2023-05-12T07:50:58.895Z,16.56
2023-05-12T07:53:25.853Z,16.38
2023-05-12T07:55:52.488Z,16.23
2023-05-12T07:58:19.551Z,16.51
2023-05-12T08:00:46.256Z,16.40
2023-05-12T08:03:13.889Z,16.89
2023-05-12T08:05:40.520Z,16.99
2023-05-12T08:08:07.449Z,16.84
2023-05-12T08:10:34.296Z,17.45
2023-05-12T08:13:01.025Z,17.23
2023-05-12T08:15:27.874Z,17.90
2023-05-12T08:17:54.486Z,17.20
2023-05-12T08:20:21.460Z,17.92
2023-05-12T08:22:48.326Z,17.66
2023-05-12T08:25:15.044Z,17.50
2023-05-12T08:27:41.802Z,18.12
2023-05-12T08:30:09.864Z,17.83
2023-05-12T08:32:36.732Z,18.32
2023-05-12T08:35:04.870Z,18.46
2023-05-12T08:37:34.258Z,18.40
2023-05-12T08:40:01.732Z,18.58
2023-05-12T08:42:43.707Z,18.36
2023-05-12T08:45:13.867Z,18.52
2023-05-12T08:47:41.722Z,18.22
2023-05-12T08:50:10.070Z,18.38
2023-05-12T08:52:36.770Z,18.35
2023-05-12T08:55:04.800Z,18.34
2023-05-12T08:57:33.478Z,18.34
2023-05-12T09:00:05.580Z,18.26
2023-05-12T09:02:52.224Z,18.71
2023-05-12T09:05:22.677Z,18.31
2023-05-12T09:07:51.513Z,18.53
2023-05-12T09:10:34.395Z,18.33
2023-05-12T09:13:22.298Z,18.27
2023-05-12T09:15:49.457Z,19.15
2023-05-12T09:18:16.127Z,18.80
2023-05-12T09:20:43.159Z,18.75
2023-05-12T09:23:22.374Z,18.67
2023-05-12T09:26:01.454Z,18.91
2023-05-12T09:28:55.920Z,18.69
2023-05-12T09:31:24.656Z,18.90
2023-05-12T09:33:52.468Z,19.78
2023-05-12T09:36:23.404Z,19.73
2023-05-12T09:39:07.117Z,19.07
2023-05-12T09:41:42.006Z,18.94
2023-05-12T09:44:10.996Z,19.33
2023-05-12T09:46:39.700Z,20.44
2023-05-12T09:49:06.329Z,20.32
2023-05-12T09:51:33.346Z,21.05
2023-05-12T09:54:00.789Z,20.94
2023-05-12T09:56:29.050Z,20.59
2023-05-12T09:59:00.809Z,21.00
2023-05-12T10:01:28.599Z,21.17
2023-05-12T10:03:56.502Z,21.29
2023-05-12T10:06:30.788Z,20.37
2023-05-12T10:09:08.834Z,20.58
2023-05-12T10:11:36.353Z,20.29
2023-05-12T10:14:04.030Z,19.72
2023-05-12T10:16:33.060Z,20.32
2023-05-12T10:19:00.415Z,19.98
2023-05-12T10:21:27.670Z,19.74
2023-05-12T10:23:54.665Z,19.90
2023-05-12T10:29:20.179Z,19.61
2023-05-12T10:31:50.345Z,20.17
2023-05-12T10:34:24.383Z,19.52
2023-05-12T10:36:52.614Z,20.32
2023-05-12T10:39:19.882Z,20.43
2023-05-12T10:41:46.406Z,19.97
2023-05-12T10:44:14.018Z,20.06
2023-05-12T10:46:43.595Z,19.36
2023-05-12T10:49:13.335Z,19.59
2023-05-12T10:51:42.822Z,19.61
2023-05-12T10:54:12.554Z,20.04
2023-05-12T10:56:43.287Z,19.62
2023-05-12T10:59:19.799Z,20.02
2023-05-12T11:02:15.686Z,19.29
2023-05-12T11:04:53.754Z,19.57
2023-05-12T11:07:22.688Z,19.44
2023-05-12T11:09:58.565Z,19.23
2023-05-12T11:12:30.151Z,19.08
2023-05-12T11:14:59.889Z,19.17
2023-05-12T11:17:26.723Z,18.64
2023-05-12T11:19:54.908Z,19.95
2023-05-12T11:22:24.160Z,19.74
2023-05-12T11:24:52.704Z,20.33
2023-05-12T11:27:22.756Z,19.98
2023-05-12T11:30:01.186Z,19.54
2023-05-12T11:32:29.562Z,19.48
2023-05-12T11:35:07.311Z,18.88
2023-05-12T11:37:37.753Z,18.85
2023-05-12T11:40:14.059Z,19.63
2023-05-12T11:42:42.841Z,19.97
2023-05-12T11:45:21.679Z,19.29
2023-05-12T11:47:48.691Z,19.18
2023-05-12T11:50:26.027Z,19.24
2023-05-12T11:52:53.306Z,18.29
2023-05-12T11:55:22.763Z,18.15
2023-05-12T11:58:03.881Z,18.34
2023-05-12T12:00:33.707Z,17.88
2023-05-12T12:03:07.330Z,17.64
2023-05-12T12:05:34.256Z,17.65
2023-05-12T12:08:09.495Z,17.85
2023-05-12T12:10:36.417Z,17.93
2023-05-12T12:13:02.997Z,17.96
2023-05-12T12:15:29.683Z,18.45
2023-05-12T12:17:57.969Z,18.90
2023-05-12T12:20:25.039Z,18.83
2023-05-12T12:22:52.937Z,19.00
2023-05-12T12:25:21.110Z,18.83
2023-05-12T12:27:48.296Z,19.14
2023-05-12T12:30:17.054Z,19.15
2023-05-12T12:32:44.536Z,19.30
2023-05-12T12:35:11.568Z,19.76
2023-05-12T12:37:38.968Z,19.71
2023-05-12T12:40:08.330Z,20.26
2023-05-12T12:42:36.409Z,20.38
2023-05-12T12:45:05.035Z,19.19
2023-05-12T12:47:32.240Z,19.67
2023-05-12T12:49:59.625Z,19.84
2023-05-12T12:52:30.254Z,19.67
2023-05-12T12:54:57.537Z,19.82
2023-05-12T12:57:24.207Z,20.27
2023-05-12T12:59:51.278Z,19.87
2023-05-12T13:02:19.321Z,19.98
2023-05-12T13:04:45.949Z,19.73
2023-05-12T13:07:12.656Z,20.33
2023-05-12T13:09:39.212Z,20.05
2023-05-12T13:12:06.934Z,20.42
2023-05-12T13:14:35.241Z,20.66
2023-05-12T13:17:04.268Z,20.80
2023-05-12T13:19:31.118Z,20.71
2023-05-12T13:21:57.890Z,20.60
2023-05-12T13:24:24.706Z,20.83
2023-05-12T13:26:56.117Z,21.04
2023-05-12T13:29:25.367Z,20.32
2023-05-12T13:31:51.910Z,20.39
2023-05-12T13:34:19.383Z,20.52
2023-05-12T13:36:46.018Z,20.93
2023-05-12T13:39:14.844Z,20.38
2023-05-12T13:41:41.528Z,20.69
2023-05-12T13:44:08.913Z,21.64
2023-05-12T13:46:35.823Z,21.63
2023-05-12T13:49:02.895Z,20.73
2023-05-12T13:51:29.485Z,20.12
2023-05-12T13:53:57.006Z,21.15
2023-05-12T13:56:24.392Z,21.16
2023-05-12T13:58:55.520Z,20.71
2023-05-12T14:01:25.221Z,20.67
2023-05-12T14:03:51.769Z,20.23
2023-05-12T14:06:18.776Z,21.05
2023-05-12T14:08:47.203Z,21.60
2023-05-12T14:11:14.140Z,20.95
2023-05-12T14:13:40.974Z,21.88
2023-05-12T14:16:09.843Z,22.01
2023-05-12T14:18:37.772Z,21.46
2023-05-12T14:21:05.838Z,21.77
2023-05-12T14:23:32.348Z,22.08
2023-05-12T14:25:58.929Z,21.65
2023-05-12T14:28:25.729Z,22.57
2023-05-12T14:30:53.616Z,22.64
2023-05-12T14:33:20.597Z,22.94
2023-05-12T14:35:59.247Z,22.09
2023-05-12T14:38:33.016Z,21.96
2023-05-12T14:40:59.786Z,21.80
2023-05-12T14:43:26.488Z,22.76
2023-05-12T14:45:54.819Z,22.55
2023-05-12T14:48:23.365Z,21.87
2023-05-12T14:50:53.836Z,22.28
2023-05-12T14:53:20.984Z,22.45
2023-05-12T14:55:49.588Z,23.26
2023-05-12T14:58:17.900Z,22.99
2023-05-12T15:00:47.363Z,23.40
2023-05-12T15:03:14.280Z,23.44
2023-05-12T15:06:01.743Z,22.83
2023-05-12T15:08:28.566Z,22.46
2023-05-12T15:10:55.345Z,22.61
2023-05-12T15:13:22.727Z,21.70
2023-05-12T15:15:50.238Z,22.41
2023-05-12T15:18:20.019Z,22.29
2023-05-12T15:20:47.094Z,21.05
2023-05-12T15:23:13.890Z,20.85
2023-05-12T15:25:41.078Z,21.55
2023-05-12T15:28:08.380Z,22.03
2023-05-12T15:30:36.230Z,21.55
2023-05-12T15:33:04.421Z,21.54
2023-05-12T15:35:31.297Z,21.08
2023-05-12T15:37:58.911Z,20.50
2023-05-12T15:40:26.917Z,21.22
2023-05-12T15:42:55.031Z,20.70
2023-05-12T15:45:22.075Z,20.79
2023-05-12T15:47:49.555Z,20.66
2023-05-12T15:50:19.809Z,21.30
2023-05-12T15:52:47.311Z,21.62
2023-05-12T15:55:14.304Z,20.61
2023-05-12T15:57:41.260Z,21.45
2023-05-12T16:00:10.243Z,21.13
2023-05-12T16:02:37.303Z,21.64
2023-05-12T16:05:04.503Z,21.56
2023-05-12T16:07:31.255Z,22.16
2023-05-12T16:09:59.260Z,21.14
2023-05-12T16:12:26.817Z,21.66
2023-05-12T16:14:53.327Z,21.19
2023-05-12T16:17:22.196Z,22.20
2023-05-12T16:19:52.982Z,20.70
2023-05-12T16:22:20.965Z,21.21
2023-05-12T16:24:47.852Z,21.02
2023-05-12T16:27:14.588Z,21.07
2023-05-12T16:29:45.786Z,21.52
2023-05-12T16:32:12.738Z,20.84
2023-05-12T16:34:39.554Z,20.24
2023-05-12T16:37:09.445Z,20.51
2023-05-12T16:39:37.061Z,19.71
2023-05-12T16:42:07.642Z,19.69
2023-05-12T16:44:34.210Z,20.08
2023-05-12T16:47:01.931Z,19.95
2023-05-12T16:49:28.923Z,20.83
2023-05-12T16:51:56.552Z,20.35
2023-05-12T16:54:24.314Z,19.43
2023-05-12T16:56:53.425Z,20.23
2023-05-12T16:59:20.048Z,21.08
2023-05-12T17:01:47.897Z,20.28
2023-05-12T17:04:15.612Z,21.10
2023-05-12T17:06:42.585Z,20.82
2023-05-12T17:09:09.366Z,20.42
2023-05-12T17:11:36.608Z,20.36
2023-05-12T17:14:04.823Z,20.56
2023-05-12T17:16:31.818Z,20.97
2023-05-12T17:21:28.193Z,20.53
2023-05-12T17:23:54.932Z,20.12
2023-05-12T17:26:22.631Z,20.58
2023-05-12T17:28:49.241Z,20.55
2023-05-12T17:31:15.831Z,20.54
2023-05-12T17:33:42.409Z,20.24
2023-05-12T17:36:13.142Z,20.88
2023-05-12T17:38:43.272Z,20.41
2023-05-12T17:41:11.533Z,20.08
2023-05-12T17:43:38.223Z,20.24
2023-05-12T17:46:05.415Z,19.94
2023-05-12T17:48:33.506Z,19.51
2023-05-12T17:51:01.247Z,20.13
2023-05-12T17:53:27.817Z,20.17
2023-05-12T17:55:55.880Z,20.20
2023-05-12T17:58:23.052Z,20.19
2023-05-12T18:00:50.015Z,19.55
2023-05-12T18:03:17.858Z,19.82
2023-05-12T18:05:47.135Z,18.53
2023-05-12T18:08:13.733Z,19.42
2023-05-12T18:10:41.298Z,19.94
2023-05-12T18:13:09.724Z,19.94
2023-05-12T18:15:36.543Z,19.85
2023-05-12T18:18:03.180Z,19.71
2023-05-12T18:20:30.222Z,19.08
2023-05-12T18:22:56.866Z,19.07
2023-05-12T18:25:23.875Z,18.87
2023-05-12T18:27:52.734Z,19.64
2023-05-12T18:30:19.551Z,19.18
2023-05-12T18:32:46.368Z,18.92
2023-05-12T18:35:13.087Z,18.97
2023-05-12T18:37:40.765Z,19.10
2023-05-12T18:40:09.378Z,18.81
2023-05-12T18:42:37.358Z,18.83
2023-05-12T18:45:04.620Z,19.16
2023-05-12T18:47:32.323Z,18.80
2023-05-12T18:49:59.434Z,18.85
2023-05-12T18:52:26.008Z,18.75
2023-05-12T18:54:53.977Z,18.70
2023-05-12T18:57:21.275Z,18.60
2023-05-12T18:59:48.204Z,18.83
2023-05-12T19:02:14.943Z,19.02
2023-05-12T19:04:41.538Z,19.27
2023-05-12T19:07:15.709Z,19.30
2023-05-12T19:09:43.382Z,19.22
2023-05-12T19:12:13.327Z,19.17
2023-05-12T19:14:40.575Z,18.96
2023-05-12T19:17:07.650Z,19.02
2023-05-12T19:19:34.770Z,18.92
2023-05-12T19:22:02.117Z,18.82
2023-05-12T19:24:29.672Z,18.92
2023-05-12T19:26:57.860Z,18.87
2023-05-12T19:29:24.578Z,18.36
2023-05-12T19:31:53.124Z,18.62
2023-05-12T19:34:21.622Z,18.46
2023-05-12T19:36:48.462Z,18.09
2023-05-12T19:39:16.119Z,18.10
2023-05-12T19:41:42.872Z,18.18
2023-05-12T19:44:09.929Z,17.95
2023-05-12T19:46:36.619Z,17.84
2023-05-12T19:49:06.305Z,17.88
2023-05-12T19:51:33.062Z,17.68
2023-05-12T19:53:59.930Z,18.03
2023-05-12T19:56:27.452Z,17.91
2023-05-12T19:58:55.448Z,17.54
2023-05-12T20:01:23.292Z,17.58
2023-05-12T20:03:50.065Z,17.63
2023-05-12T20:06:17.752Z,17.52
2023-05-12T20:08:45.566Z,17.16
2023-05-12T20:11:12.370Z,17.39
2023-05-12T20:13:38.894Z,17.34
2023-05-12T20:16:05.849Z,17.12
2023-05-12T20:18:32.438Z,16.88
2023-05-12T20:20:59.154Z,16.78
2023-05-12T20:23:25.914Z,16.72
2023-05-12T20:25:53.610Z,16.67
2023-05-12T20:28:22.210Z,16.38
2023-05-12T20:30:48.715Z,16.53
2023-05-12T20:33:15.215Z,16.72
2023-05-12T20:35:41.809Z,16.50
2023-05-12T20:38:08.799Z,16.77
2023-05-12T20:40:36.244Z,16.75
2023-05-12T20:43:02.820Z,16.64
2023-05-12T20:45:29.338Z,16.67
2023-05-12T20:47:56.125Z,16.59
2023-05-12T20:50:23.775Z,16.39
2023-05-12T20:52:50.400Z,16.55
2023-05-12T20:55:18.757Z,16.41
2023-05-12T20:57:45.511Z,16.57
2023-05-12T21:00:13.610Z,16.24
2023-05-12T21:02:41.803Z,16.31
2023-05-12T21:05:08.635Z,16.49
2023-05-12T21:07:35.346Z,16.12
2023-05-12T21:10:03.920Z,16.03
2023-05-12T21:12:32.041Z,15.78
2023-05-12T21:14:59.607Z,15.68
2023-05-12T21:17:26.209Z,15.72
2023-05-12T21:19:52.764Z,15.62
2023-05-12T21:22:19.316Z,15.65
2023-05-12T21:24:45.893Z,15.62
2023-05-12T21:27:12.767Z,15.66
2023-05-12T21:29:40.437Z,15.53
2023-05-12T21:32:07.587Z,15.63
2023-05-12T21:34:35.792Z,15.51
2023-05-12T21:37:04.249Z,15.49
2023-05-12T21:39:31.326Z,15.44
2023-05-12T21:41:57.881Z,15.36
2023-05-12T21:44:24.544Z,15.42
2023-05-12T21:46:51.258Z,15.27
2023-05-12T21:49:17.894Z,15.13
2023-05-12T21:51:44.690Z,15.29
2023-05-12T21:54:13.001Z,15.26
2023-05-12T21:56:39.569Z,15.21
2023-05-12T21:59:06.566Z,15.24
2023-05-12T22:01:33.499Z,15.30
2023-05-12T22:04:00.257Z,15.20
2023-05-12T22:06:27.239Z,15.24
2023-05-12T22:08:54.183Z,15.32
2023-05-12T22:11:21.644Z,15.29
2023-05-12T22:13:48.412Z,15.34
2023-05-12T22:16:15.505Z,14.93
2023-05-12T22:18:45.523Z,14.94
2023-05-12T22:21:12.844Z,14.85
2023-05-12T22:23:42.134Z,14.82
2023-05-12T22:26:09.518Z,14.81
2023-05-12T22:28:36.479Z,15.02
2023-05-12T22:31:04.454Z,15.01
2023-05-12T22:33:32.482Z,14.78
2023-05-12T22:36:02.300Z,14.87
2023-05-12T22:38:28.936Z,14.87
2023-05-12T22:40:55.648Z,15.08
2023-05-12T22:43:22.226Z,14.79
2023-05-12T22:45:52.753Z,15.24
2023-05-12T22:48:19.846Z,15.27
2023-05-12T22:50:46.422Z,15.15
2023-05-12T22:53:14.115Z,15.33
2023-05-12T22:55:40.822Z,15.60
2023-05-12T22:58:07.576Z,15.55
2023-05-12T23:00:34.409Z,15.57
2023-05-12T23:03:01.132Z,15.89
2023-05-12T23:05:27.812Z,15.76
2023-05-12T23:07:54.436Z,15.56
2023-05-12T23:10:21.328Z,15.21
2023-05-12T23:12:49.345Z,15.25
2023-05-12T23:15:15.975Z,14.77
2023-05-12T23:17:42.500Z,15.31
2023-05-12T23:20:09.317Z,15.32
2023-05-12T23:22:37.635Z,15.22
2023-05-12T23:25:04.616Z,15.82
2023-05-12T23:27:31.461Z,15.57
2023-05-12T23:29:58.007Z,15.60
2023-05-12T23:32:25.053Z,15.56
2023-05-12T23:34:52.212Z,15.50
2023-05-12T23:37:21.730Z,15.48
2023-05-12T23:39:48.704Z,15.37
2023-05-12T23:42:15.302Z,15.80
2023-05-12T23:44:41.893Z,15.90
2023-05-12T23:47:09.037Z,15.84
2023-05-12T23:49:35.721Z,16.08
2023-05-12T23:52:02.314Z,15.97
2023-05-12T23:54:29.129Z,15.17
2023-05-12T23:56:55.681Z,15.48
2023-05-12T23:59:22.203Z,15.42
